Time;durP1;ratioP1;P1;durP2;ratioP2;P2;SDS_P1;SDS_P2;PMS_P1;PMS_P2;Temp;Humidity;BMP_temperature;BMP_pressure;BME280_temperature;BME280_humidity;BME280_pressure;Samples;Min_cycle;Max_cycle;Signal;HPM_P1;HPM_P2
2022/12/23 00:00:07;;;;;;;14.73;5.97;;;;;;;8.70;96.46;99419.78;4972102;28;20240;-68
2022/12/23 00:02:34;;;;;;;11.10;5.47;;;;;;;8.66;96.24;99405.69;4972459;28;20232;-68
2022/12/23 00:05:01;;;;;;;14.27;6.27;;;;;;;8.67;96.13;99411.84;4967204;28;20218;-68
2022/12/23 00:07:27;;;;;;;13.27;5.83;;;;;;;8.64;96.24;99414.47;4969307;28;20204;-68
2022/12/23 00:09:53;;;;;;;14.03;6.37;;;;;;;8.58;96.02;99407.41;4971702;28;20222;-68
2022/12/23 00:15:05;;;;;;;13.17;5.70;;;;;;;8.57;96.48;99407.41;4972526;28;20601;-69
2022/12/23 00:17:33;;;;;;;16.63;6.37;;;;;;;8.61;96.34;99402.16;4965968;28;20987;-68
2022/12/23 00:20:00;;;;;;;19.10;5.83;;;;;;;8.57;96.23;99395.09;4972617;28;20196;-69
2022/12/23 00:25:12;;;;;;;9.90;5.10;;;;;;;8.63;96.41;99399.50;4966470;28;20227;-68
2022/12/23 00:27:39;;;;;;;12.60;5.13;;;;;;;8.65;96.34;99405.69;4952931;28;20205;-69
2022/12/23 00:30:08;;;;;;;12.47;5.10;;;;;;;8.67;96.43;99388.09;4972322;28;20669;-69
2022/12/23 00:32:35;;;;;;;11.40;5.27;;;;;;;8.63;96.45;99383.69;4971513;28;20219;-68
2022/12/23 00:35:01;;;;;;;9.70;5.00;;;;;;;8.64;96.37;99388.97;4968774;28;20200;-68
2022/12/23 00:37:29;;;;;;;13.47;4.93;;;;;;;8.63;96.53;99381.91;4968411;28;20212;-68
2022/12/23 00:42:52;;;;;;;8.93;4.63;;;;;;;8.61;96.58;99381.03;4966460;28;20216;-69
2022/12/23 00:45:19;;;;;;;11.50;4.83;;;;;;;8.64;96.56;99388.97;4963890;28;20246;-68
2022/12/23 00:50:35;;;;;;;13.87;5.23;;;;;;;8.58;96.46;99396.84;4968327;28;20560;-69
2022/12/23 00:53:03;;;;;;;9.53;4.87;;;;;;;8.59;96.50;99401.25;4972152;28;20634;-69
2022/12/23 00:55:29;;;;;;;10.23;5.37;;;;;;;8.61;96.67;99403.91;4965400;28;20338;-70
2022/12/23 00:57:56;;;;;;;11.53;6.00;;;;;;;8.63;96.70;99400.41;4964380;28;20208;-69
2022/12/23 01:05:35;;;;;;;10.83;5.60;;;;;;;8.65;96.16;99397.75;4966368;28;20200;-69
2022/12/23 01:06:00;;;;;;;11.63;5.60;;;;;;;8.74;95.56;99408.34;4968182;28;20239;-69
2022/12/23 01:08:27;;;;;;;11.03;5.53;;;;;;;8.70;95.66;99410.09;4968807;28;20636;-69
2022/12/23 01:10:54;;;;;;;9.87;5.60;;;;;;;8.81;95.04;99412.81;4968336;28;20725;-69
2022/12/23 01:13:21;;;;;;;10.80;5.10;;;;;;;8.79;94.93;99414.53;4971329;28;20212;-69
2022/12/23 01:15:47;;;;;;;11.17;6.13;;;;;;;8.81;94.48;99415.47;4952275;28;20262;-69
2022/12/23 01:18:13;;;;;;;8.80;4.50;;;;;;;8.78;94.38;99425.97;4969586;28;20623;-69
2022/12/23 01:20:40;;;;;;;10.50;5.47;;;;;;;8.73;94.81;99419.78;4970419;28;20287;-69
2022/12/23 01:23:06;;;;;;;11.40;5.33;;;;;;;8.79;94.69;99425.09;4969751;28;20224;-69
2022/12/23 01:25:32;;;;;;;12.50;6.57;;;;;;;8.83;94.84;99448.03;4970389;28;20255;-69
2022/12/23 01:27:59;;;;;;;15.10;7.27;;;;;;;8.78;94.66;99449.72;4967531;28;20204;-69
2022/12/23 01:30:25;;;;;;;14.43;8.20;;;;;;;8.79;94.63;99454.13;4969335;28;20225;-69
2022/12/23 01:32:52;;;;;;;14.13;8.13;;;;;;;8.69;94.50;99447.94;4970535;28;20251;-69
2022/12/23 01:35:18;;;;;;;13.57;7.47;;;;;;;8.63;94.91;99465.50;4969533;28;20225;-69
2022/12/23 01:37:44;;;;;;;18.77;8.27;;;;;;;8.60;95.17;99468.13;4961705;28;20260;-69
2022/12/23 01:40:10;;;;;;;17.17;8.20;;;;;;;8.47;95.24;99461.88;4970921;28;20194;-69
2022/12/23 01:42:43;;;;;;;21.13;9.00;;;;;;;8.38;95.44;99459.16;4970331;28;20230;-69
2022/12/23 01:45:23;;;;;;;14.53;7.83;;;;;;;8.44;95.51;99473.31;4963819;28;20256;-69
2022/12/23 01:48:12;;;;;;;14.00;7.10;;;;;;;8.44;95.95;99475.06;4966008;28;20198;-69
2022/12/23 01:50:45;;;;;;;14.83;7.70;;;;;;;8.46;96.18;99481.22;4967354;28;20216;-70
2022/12/23 01:53:20;;;;;;;16.03;6.93;;;;;;;8.41;96.59;99480.31;4957667;28;20205;-69
2022/12/23 01:55:53;;;;;;;13.57;7.17;;;;;;;8.46;96.62;99481.22;4961697;28;20200;-69
2022/12/23 01:58:28;;;;;;;16.07;7.40;;;;;;;8.46;96.44;99483.88;4969778;28;20203;-69
2022/12/23 02:03:44;;;;;;;12.33;7.00;;;;;;;8.42;96.48;99482.06;4967280;28;20270;-69
2022/12/23 02:09:23;;;;;;;13.03;6.77;;;;;;;8.46;96.60;99505.84;4965536;28;20234;-69
2022/12/23 02:12:08;;;;;;;18.23;6.20;;;;;;;8.47;96.94;99523.44;4966569;28;20219;-69
2022/12/23 02:18:07;;;;;;;10.13;5.57;;;;;;;8.37;96.47;99513.66;4966731;28;20676;-69
2022/12/23 02:21:07;;;;;;;10.53;5.50;;;;;;;8.33;96.65;99524.16;4968137;28;20209;-70
2022/12/23 02:23:55;;;;;;;19.33;5.90;;;;;;;8.28;96.70;99520.59;4966718;28;20217;-70
2022/12/23 02:26:21;;;;;;;11.03;5.90;;;;;;;8.28;96.68;99524.13;4969155;28;20208;-69
2022/12/23 02:29:21;;;;;;;11.33;5.93;;;;;;;8.31;96.48;99524.16;4949729;28;20285;-69
2022/12/23 02:32:02;;;;;;;16.10;6.03;;;;;;;8.31;96.79;99525.91;4966288;28;20225;-69
2022/12/23 02:34:53;;;;;;;10.57;6.20;;;;;;;8.26;96.40;99503.88;4967252;28;20254;-69
2022/12/23 02:37:35;;;;;;;13.13;6.90;;;;;;;8.26;96.62;99525.88;4965196;28;20285;-69
2022/12/23 02:40:10;;;;;;;13.13;6.43;;;;;;;8.20;96.64;99524.94;4966662;28;20205;-69
2022/12/23 02:42:45;;;;;;;17.80;6.67;;;;;;;8.20;96.48;99524.94;4968058;28;20227;-69
2022/12/23 02:45:28;;;;;;;10.93;6.17;;;;;;;8.22;96.46;99517.91;4963459;28;20225;-70
2022/12/23 02:48:16;;;;;;;11.37;6.13;;;;;;;8.30;96.48;99518.84;4962917;28;20291;-70
2022/12/23 02:50:44;;;;;;;11.83;6.77;;;;;;;8.23;96.53;99528.47;4965185;28;20221;-69
2022/12/23 02:53:19;;;;;;;16.53;7.10;;;;;;;8.28;96.45;99537.31;4968157;28;20286;-69
2022/12/23 02:55:47;;;;;;;11.37;6.60;;;;;;;8.23;96.25;99532.88;4963117;28;20222;-69
2022/12/23 02:58:17;;;;;;;12.17;6.83;;;;;;;8.36;95.96;99526.84;4966280;28;20236;-69
2022/12/23 03:00:45;;;;;;;11.87;6.83;;;;;;;8.28;96.17;99528.50;4963449;28;20711;-69
2022/12/23 03:03:12;;;;;;;14.10;7.10;;;;;;;8.25;96.02;99524.09;4970278;28;20229;-69
2022/12/23 03:05:42;;;;;;;16.63;7.10;;;;;;;8.26;96.18;99519.69;4970674;28;20239;-69
2022/12/23 03:08:17;;;;;;;16.27;8.30;;;;;;;8.23;96.23;99517.94;4972497;28;20281;-69
2022/12/23 03:11:00;;;;;;;59.47;8.83;;;;;;;8.27;95.88;99532.03;4972577;28;20264;-69
2022/12/23 03:13:38;;;;;;;20.97;7.53;;;;;;;8.27;96.01;99548.72;4972733;28;20198;-69
2022/12/23 03:16:19;;;;;;;29.57;8.00;;;;;;;8.19;95.98;99539.88;4968855;28;20201;-69
2022/12/23 03:19:09;;;;;;;73.40;9.37;;;;;;;8.21;96.07;99545.16;4971147;28;20235;-70
2022/12/23 03:21:58;;;;;;;66.60;9.47;;;;;;;8.17;96.13;99555.69;4974616;28;20234;-70
2022/12/23 03:24:43;;;;;;;55.30;6.70;;;;;;;8.22;96.34;99554.84;4971118;28;20250;-70
2022/12/23 03:27:34;;;;;;;69.53;7.83;;;;;;;8.18;96.00;99546.91;4971553;28;20672;-70
2022/12/23 03:30:14;;;;;;;73.13;7.53;;;;;;;8.14;96.38;99550.38;4971232;28;20474;-70
2022/12/23 03:33:24;;;;;;;55.63;7.20;;;;;;;8.16;96.00;99572.38;4954552;28;20282;-70
2022/12/23 03:35:56;;;;;;;66.27;7.53;;;;;;;8.00;96.16;99541.44;4970733;28;20202;-70
2022/12/23 03:38:24;;;;;;;56.30;7.10;;;;;;;8.02;96.34;99566.09;4970146;28;20666;-70
2022/12/23 03:40:56;;;;;;;46.97;7.07;;;;;;;8.04;96.35;99589.84;4954551;28;20644;-70
2022/12/23 03:43:32;;;;;;;78.00;8.17;;;;;;;7.97;96.49;99578.31;4972616;28;20205;-70
2022/12/23 03:46:02;;;;;;;30.93;6.57;;;;;;;7.97;96.43;99575.69;4970287;28;20219;-70
2022/12/23 03:48:38;;;;;;;30.00;6.50;;;;;;;8.02;96.38;99574.00;4970625;28;20283;-70
2022/12/23 03:51:13;;;;;;;36.00;7.13;;;;;;;7.89;96.60;99558.91;4961331;28;20321;-70
2022/12/23 03:53:46;;;;;;;35.80;7.20;;;;;;;7.96;96.42;99583.56;4954097;28;20211;-70
2022/12/23 03:56:18;;;;;;;54.63;7.73;;;;;;;7.92;96.37;99579.13;4974536;28;20572;-70
2022/12/23 03:58:56;;;;;;;45.50;6.73;;;;;;;7.93;96.80;99584.44;4970114;28;20226;-70
2022/12/23 04:01:36;;;;;;;27.07;7.37;;;;;;;7.89;96.57;99592.28;4972118;28;20217;-70
2022/12/23 04:04:10;;;;;;;60.03;7.10;;;;;;;7.83;96.48;99598.38;4955168;28;20198;-70
2022/12/23 04:07:02;;;;;;;21.60;6.10;;;;;;;7.84;96.69;99600.16;4970400;28;20242;-69
2022/12/23 04:09:28;;;;;;;61.90;7.10;;;;;;;7.82;96.64;99604.50;4965266;28;20198;-70
2022/12/23 04:11:57;;;;;;;45.63;7.07;;;;;;;7.79;96.55;99601.84;4970864;28;20699;-70
2022/12/23 04:14:23;;;;;;;47.87;6.23;;;;;;;7.75;95.96;99589.50;4953001;28;20198;-70
2022/12/23 04:16:53;;;;;;;58.40;7.07;;;;;;;7.66;96.77;99607.84;4971055;28;20583;-69
2022/12/23 04:19:20;;;;;;;15.30;5.17;;;;;;;7.61;96.40;99596.38;4971501;28;20198;-69
2022/12/23 04:21:46;;;;;;;87.70;7.33;;;;;;;7.57;96.77;99621.75;4945927;28;20306;-70
2022/12/23 04:24:13;;;;;;;55.67;6.57;;;;;;;7.53;96.44;99612.94;4971019;28;20233;-70
2022/12/23 04:26:39;;;;;;;41.80;6.40;;;;;;;7.45;96.44;99603.16;4953247;28;20589;-70
2022/12/23 04:29:05;;;;;;;23.03;6.23;;;;;;;7.36;96.42;99600.41;4970643;28;20204;-69
2022/12/23 04:31:31;;;;;;;38.73;5.70;;;;;;;7.26;96.44;99590.63;4970693;28;20226;-70
2022/12/23 04:33:58;;;;;;;58.80;7.53;;;;;;;7.19;96.48;99593.16;4970377;28;20552;-70
2022/12/23 04:36:24;;;;;;;17.60;5.97;;;;;;;7.10;96.28;99589.50;4972735;28;20286;-69
2022/12/23 04:38:50;;;;;;;12.73;6.23;;;;;;;6.97;96.20;99596.34;4962684;28;20235;-70
2022/12/23 04:41:17;;;;;;;12.87;5.63;;;;;;;6.87;96.57;99595.34;4970813;28;20300;-70
2022/12/23 04:43:43;;;;;;;13.80;6.10;;;;;;;6.89;96.89;99596.25;4971306;28;20198;-70
2022/12/23 04:46:17;;;;;;;10.63;5.63;;;;;;;6.99;97.24;99596.38;4970411;28;20736;-70
2022/12/23 04:48:44;;;;;;;9.37;5.37;;;;;;;6.98;97.42;99605.13;4969397;28;20260;-70
2022/12/23 04:51:10;;;;;;;11.30;5.77;;;;;;;6.89;97.15;99613.78;4970689;28;20228;-70
2022/12/23 04:53:37;;;;;;;12.20;5.23;;;;;;;6.73;96.40;99612.63;4971200;28;20197;-70
2022/12/23 04:56:03;;;;;;;12.37;5.97;;;;;;;6.55;96.39;99618.50;4969773;28;20198;-70
2022/12/23 04:58:30;;;;;;;11.93;5.70;;;;;;;6.42;96.39;99619.16;4967182;28;20760;-69
2022/12/23 05:01:07;;;;;;;9.87;5.27;;;;;;;6.24;96.48;99605.66;4970563;28;20224;-70
2022/12/23 05:03:34;;;;;;;10.97;5.20;;;;;;;6.16;96.56;99609.91;4953526;28;20211;-70
2022/12/23 05:06:01;;;;;;;7.87;5.00;;;;;;;6.10;96.87;99628.19;4967551;28;20232;-70
2022/12/23 05:08:28;;;;;;;9.83;5.60;;;;;;;6.20;97.29;99632.75;4968340;28;20252;-70
2022/12/23 05:10:54;;;;;;;10.37;5.17;;;;;;;6.34;98.01;99628.63;4971190;28;20213;-70
2022/12/23 05:13:21;;;;;;;10.00;5.13;;;;;;;6.52;98.26;99618.44;4959567;28;20241;-70
2022/12/23 05:15:49;;;;;;;8.00;5.03;;;;;;;6.68;98.51;99630.09;4952501;28;20664;-70
2022/12/23 05:18:16;;;;;;;7.87;5.27;;;;;;;6.90;98.79;99639.25;4969646;28;20284;-70
2022/12/23 05:23:17;;;;;;;8.70;5.20;;;;;;;7.21;97.76;99630.06;4966025;28;20241;-74
2022/12/23 05:25:50;;;;;;;8.73;5.10;;;;;;;7.14;97.93;99633.44;4971147;28;20213;-74
2022/12/23 05:28:17;;;;;;;7.97;4.50;;;;;;;7.04;97.81;99627.16;4970536;28;20204;-73
2022/12/23 05:30:43;;;;;;;7.77;4.43;;;;;;;6.78;96.98;99629.38;4974462;28;20251;-72
2022/12/23 05:33:09;;;;;;;7.47;4.43;;;;;;;6.51;96.38;99621.06;4984148;28;20709;-72
2022/12/23 05:35:36;;;;;;;8.07;4.63;;;;;;;6.38;96.60;99640.09;4989185;28;20197;-72
2022/12/23 05:38:02;;;;;;;9.23;4.30;;;;;;;6.22;96.46;99636.31;4989193;28;20673;-72
2022/12/23 05:40:30;;;;;;;7.50;5.07;;;;;;;6.07;96.71;99634.28;4988927;28;20235;-73
2022/12/23 05:42:58;;;;;;;7.83;4.87;;;;;;;6.04;96.85;99642.13;4987391;28;20300;-73
2022/12/23 05:45:24;;;;;;;6.97;4.20;;;;;;;6.01;97.26;99641.16;4987757;28;20260;-73
2022/12/23 05:47:51;;;;;;;7.70;4.70;;;;;;;6.03;97.42;99636.81;4986356;28;20431;-75
2022/12/23 05:50:17;;;;;;;10.67;5.53;;;;;;;6.02;97.62;99638.56;4988300;28;20758;-73
2022/12/23 05:52:43;;;;;;;7.30;4.83;;;;;;;6.06;97.65;99639.50;4988679;28;20219;-73
2022/12/23 05:55:10;;;;;;;10.57;5.93;;;;;;;6.13;98.13;99634.41;4989304;28;20618;-73
2022/12/23 05:57:36;;;;;;;8.77;5.10;;;;;;;6.27;98.17;99643.41;4989759;28;20234;-73
2022/12/23 06:00:03;;;;;;;10.27;5.20;;;;;;;6.54;98.67;99645.66;4987673;28;20197;-73
2022/12/23 06:02:29;;;;;;;8.80;4.60;;;;;;;6.51;98.14;99637.72;4980457;28;20245;-73
2022/12/23 06:04:56;;;;;;;6.67;4.53;;;;;;;6.48;97.42;99649.94;4982545;28;20215;-74
2022/12/23 06:07:22;;;;;;;7.13;4.70;;;;;;;6.37;97.49;99652.34;4992660;28;20299;-72
2022/12/23 06:09:49;;;;;;;7.23;4.97;;;;;;;6.17;96.98;99653.75;4981594;28;20720;-69
2022/12/23 06:12:15;;;;;;;7.07;4.70;;;;;;;5.95;96.99;99649.78;4985785;28;20274;-69
2022/12/23 06:14:41;;;;;;;9.63;5.50;;;;;;;5.88;97.10;99658.38;4985491;28;20202;-71
2022/12/23 06:17:08;;;;;;;7.33;4.60;;;;;;;5.85;97.83;99650.44;4984017;28;20286;-74
2022/12/23 06:19:34;;;;;;;10.27;5.77;;;;;;;6.01;98.03;99659.56;4982324;28;20294;-68
2022/12/23 06:22:01;;;;;;;11.23;6.13;;;;;;;6.17;98.41;99667.75;4983607;28;20431;-70
2022/12/23 06:24:27;;;;;;;8.33;5.67;;;;;;;6.39;98.98;99665.53;4976409;28;20200;-74
2022/12/23 06:26:53;;;;;;;9.73;6.17;;;;;;;6.65;99.00;99673.91;4987185;28;20221;-72
2022/12/23 06:29:23;;;;;;;8.57;6.00;;;;;;;6.71;98.55;99680.16;4987039;28;20676;-72
2022/12/23 06:31:49;;;;;;;10.80;5.83;;;;;;;6.79;98.58;99681.16;4986392;28;20255;-73
2022/12/23 06:34:15;;;;;;;10.90;5.43;;;;;;;6.79;97.97;99678.53;4987451;28;20201;-74
2022/12/23 06:36:42;;;;;;;10.00;5.57;;;;;;;6.79;97.60;99682.91;4987594;28;20204;-72
2022/12/23 06:39:09;;;;;;;10.67;5.83;;;;;;;6.67;97.77;99683.59;4984478;28;20232;-73
2022/12/23 06:41:35;;;;;;;12.00;5.83;;;;;;;6.70;98.20;99683.63;4987799;28;20304;-72
2022/12/23 06:44:02;;;;;;;8.27;5.53;;;;;;;6.69;98.16;99679.22;4988376;28;20580;-74
2022/12/23 06:46:28;;;;;;;11.47;5.77;;;;;;;6.77;98.67;99679.34;4985479;28;20588;-73
2022/12/23 06:48:55;;;;;;;12.27;6.07;;;;;;;6.85;98.71;99686.56;4987814;28;20196;-72
2022/12/23 06:51:21;;;;;;;11.40;6.57;;;;;;;7.01;98.28;99677.16;4987007;28;20224;-72
2022/12/23 06:53:48;;;;;;;11.20;6.50;;;;;;;7.00;98.09;99682.38;4973491;28;20228;-72
2022/12/23 06:56:14;;;;;;;10.80;6.40;;;;;;;7.01;98.32;99689.41;4986692;28;20212;-72
2022/12/23 06:58:40;;;;;;;10.80;7.00;;;;;;;7.04;98.17;99679.81;4987970;28;20220;-72
2022/12/23 07:01:07;;;;;;;13.60;7.10;;;;;;;6.98;98.07;99660.41;4987620;28;20228;-73
2022/12/23 07:03:35;;;;;;;11.60;6.23;;;;;;;6.98;98.22;99668.31;4985816;28;20284;-72
2022/12/23 07:06:02;;;;;;;10.70;6.30;;;;;;;6.87;98.31;99666.41;4986522;28;20758;-72
2022/12/23 07:08:28;;;;;;;12.47;6.60;;;;;;;7.00;97.91;99670.09;4982949;28;20228;-73
2022/12/23 07:11:02;;;;;;;11.97;6.87;;;;;;;7.03;97.59;99662.25;4982005;28;20209;-73
2022/12/23 07:13:29;;;;;;;10.77;6.40;;;;;;;7.10;97.75;99674.66;4985768;28;20207;-75
2022/12/23 07:15:55;;;;;;;11.73;7.40;;;;;;;7.05;97.74;99659.66;4985681;28;21779;-73
2022/12/23 07:18:22;;;;;;;10.80;7.27;;;;;;;7.01;98.17;99665.72;4986038;28;20210;-74
2022/12/23 07:20:49;;;;;;;14.20;8.40;;;;;;;7.13;97.46;99661.53;4984664;28;20201;-74
2022/12/23 07:23:15;;;;;;;15.23;7.17;;;;;;;7.16;97.03;99669.47;4986749;28;20565;-72
2022/12/23 07:25:42;;;;;;;12.27;7.47;;;;;;;7.24;96.40;99677.53;4976867;28;20224;-73
2022/12/23 07:28:08;;;;;;;12.93;7.33;;;;;;;7.27;95.91;99680.19;4987014;28;20485;-73
2022/12/23 07:30:35;;;;;;;15.23;8.20;;;;;;;7.21;96.08;99682.75;4983884;28;20698;-75
2022/12/23 07:33:01;;;;;;;13.00;8.27;;;;;;;7.18;95.90;99687.94;4980521;28;20232;-72
2022/12/23 07:35:27;;;;;;;14.67;9.67;;;;;;;7.07;96.47;99695.66;4987178;28;20587;-72
2022/12/23 07:37:55;;;;;;;13.03;7.90;;;;;;;7.15;96.52;99699.31;4982464;28;20251;-73
2022/12/23 07:40:22;;;;;;;14.43;8.50;;;;;;;7.15;96.97;99701.94;4988498;28;20215;-75
2022/12/23 07:42:49;;;;;;;12.80;7.83;;;;;;;7.06;97.06;99701.78;4987399;28;20255;-73
2022/12/23 07:45:15;;;;;;;11.10;7.77;;;;;;;7.00;97.17;99696.44;4986114;28;20277;-74
2022/12/23 07:47:42;;;;;;;13.10;8.80;;;;;;;6.93;97.35;99697.19;4989162;28;20201;-73
2022/12/23 07:50:08;;;;;;;14.87;9.00;;;;;;;6.88;97.20;99698.88;4989484;28;20644;-72
2022/12/23 07:52:35;;;;;;;11.70;7.90;;;;;;;6.95;96.93;99718.28;4981359;28;20225;-70
2022/12/23 07:55:01;;;;;;;11.37;6.97;;;;;;;6.88;96.89;99712.03;4980565;28;20205;-71
2022/12/23 07:57:28;;;;;;;13.03;7.27;;;;;;;6.80;96.95;99714.50;4968568;28;20649;-73
2022/12/23 07:59:54;;;;;;;12.77;7.20;;;;;;;6.69;97.14;99697.66;4974745;28;20205;-74
2022/12/23 08:02:23;;;;;;;14.97;8.43;;;;;;;6.35;97.28;99646.19;4989431;28;20224;-77
2022/12/23 08:04:50;;;;;;;16.23;9.63;;;;;;;6.62;97.46;99685.25;4980293;28;20205;-76
2022/12/23 08:07:17;;;;;;;19.63;12.53;;;;;;;6.73;97.86;99682.81;4985949;28;20218;-73
2022/12/23 08:09:43;;;;;;;16.03;9.60;;;;;;;6.73;98.06;99670.53;4975900;28;20201;-72
2022/12/23 08:12:09;;;;;;;12.33;7.17;;;;;;;6.90;98.15;99679.63;4980106;28;20567;-72
2022/12/23 08:14:36;;;;;;;13.63;7.63;;;;;;;7.03;98.64;99682.44;4992156;28;20201;-69
2022/12/23 08:17:02;;;;;;;13.20;7.87;;;;;;;7.08;98.45;99679.00;4985659;28;20208;-71
2022/12/23 08:19:29;;;;;;;12.77;8.23;;;;;;;7.05;98.23;99673.69;4991974;28;20202;-70
2022/12/23 08:21:55;;;;;;;13.70;7.83;;;;;;;7.16;98.47;99700.19;4981008;28;20240;-70
2022/12/23 08:24:21;;;;;;;12.57;7.63;;;;;;;7.19;98.25;99682.69;4987202;28;20201;-69
2022/12/23 08:26:48;;;;;;;12.33;7.70;;;;;;;7.31;97.99;99689.91;4987670;28;20313;-71
2022/12/23 08:29:14;;;;;;;10.87;7.37;;;;;;;7.36;98.28;99696.13;4936271;28;20232;-70
2022/12/23 08:31:40;;;;;;;11.43;7.60;;;;;;;7.40;98.27;99707.59;4967890;28;20779;-69
2022/12/23 08:34:07;;;;;;;12.63;7.40;;;;;;;7.41;98.34;99702.34;4974982;28;20201;-72
2022/12/23 08:36:35;;;;;;;11.10;6.97;;;;;;;7.51;98.65;99708.63;4987860;28;20231;-69
2022/12/23 08:39:08;;;;;;;10.63;7.40;;;;;;;7.63;98.54;99700.03;4989358;28;20262;-70
2022/12/23 08:41:37;;;;;;;16.43;8.93;;;;;;;7.75;98.78;99719.53;4988568;28;20633;-68
2022/12/23 08:44:04;;;;;;;10.77;7.40;;;;;;;7.80;98.73;99709.94;4990120;28;20200;-69
2022/12/23 08:46:31;;;;;;;13.20;7.27;;;;;;;7.74;98.78;99691.41;4964872;28;20248;-70
2022/12/23 08:48:57;;;;;;;10.43;7.07;;;;;;;7.90;98.63;99726.75;4990316;28;20224;-70
2022/12/23 08:51:25;;;;;;;10.93;7.13;;;;;;;7.94;98.39;99723.28;4981320;28;20256;-73
2022/12/23 08:53:53;;;;;;;9.77;6.77;;;;;;;8.01;98.62;99711.09;4979719;28;20349;-71
2022/12/23 08:56:28;;;;;;;12.37;6.90;;;;;;;8.02;98.64;99699.69;4982003;28;20217;-69
2022/12/23 08:58:55;;;;;;;13.93;7.23;;;;;;;8.04;97.86;99698.84;4989884;28;20247;-72
2022/12/23 09:01:24;;;;;;;9.00;6.40;;;;;;;8.05;97.47;99689.16;4990458;28;20255;-72
2022/12/23 09:03:51;;;;;;;13.50;6.90;;;;;;;8.03;96.70;99685.63;4989384;28;20202;-73
2022/12/23 09:06:30;;;;;;;9.00;5.90;;;;;;;8.16;95.29;99700.72;4972173;28;20281;-70
2022/12/23 09:08:57;;;;;;;14.73;7.13;;;;;;;8.14;96.02;99711.25;4988411;28;20232;-70
2022/12/23 09:11:26;;;;;;;10.73;6.60;;;;;;;8.09;96.35;99709.44;4989293;28;20265;-70
2022/12/23 09:13:53;;;;;;;10.87;6.47;;;;;;;8.18;96.77;99712.19;4989037;28;20208;-71
2022/12/23 09:16:20;;;;;;;12.07;6.50;;;;;;;8.31;96.20;99716.72;4986778;28;20203;-71
2022/12/23 09:18:46;;;;;;;11.73;6.43;;;;;;;8.27;96.46;99712.28;4986220;28;20208;-70
2022/12/23 09:21:16;;;;;;;12.33;6.40;;;;;;;8.34;96.77;99710.63;4985847;28;20264;-70
2022/12/23 09:23:43;;;;;;;9.07;5.93;;;;;;;8.49;96.46;99716.09;4966820;28;20227;-71
2022/12/23 09:26:09;;;;;;;12.40;7.57;;;;;;;8.49;96.07;99713.44;4984300;28;20252;-69
2022/12/23 09:28:36;;;;;;;11.73;6.70;;;;;;;8.71;93.80;99723.34;4981263;28;20215;-68
2022/12/23 09:31:10;;;;;;;12.20;6.50;;;;;;;8.66;93.55;99703.94;4982237;28;20203;-70
2022/12/23 09:33:37;;;;;;;23.43;14.37;;;;;;;8.63;93.76;99706.56;4985853;28;20268;-71
2022/12/23 09:36:05;;;;;;;12.53;7.07;;;;;;;8.85;92.31;99712.06;4985634;28;20218;-71
2022/12/23 09:38:32;;;;;;;11.53;7.27;;;;;;;8.86;90.68;99687.41;4983500;28;20215;-69
2022/12/23 09:41:33;;;;;;;9.77;7.13;;;;;;;8.95;90.18;99696.31;4984947;28;20264;-74
2022/12/23 09:44:18;;;;;;;8.60;5.93;;;;;;;9.03;90.63;99722.78;4987729;28;20650;-72
2022/12/23 09:46:55;;;;;;;12.07;7.20;;;;;;;9.11;89.94;99713.16;4972145;28;20220;-70
2022/12/23 09:49:22;;;;;;;11.33;7.03;;;;;;;9.02;90.63;99705.16;4987678;28;20202;-73
2022/12/23 09:51:52;;;;;;;11.87;6.47;;;;;;;8.98;90.48;99704.25;4984743;28;20234;-75
2022/12/23 09:54:23;;;;;;;10.33;5.63;;;;;;;8.94;90.62;99712.13;4984403;28;20203;-75
2022/12/23 09:56:53;;;;;;;9.43;5.90;;;;;;;8.94;90.54;99718.28;4980052;28;20207;-79
2022/12/23 09:59:45;;;;;;;10.07;5.50;;;;;;;8.93;90.44;99720.94;4984264;28;20286;-76
2022/12/23 10:02:27;;;;;;;8.40;5.37;;;;;;;8.84;90.27;99705.00;4983455;28;20488;-77
2022/12/23 10:05:20;;;;;;;11.73;5.70;;;;;;;8.78;90.75;99714.59;4963197;28;20208;-76
2022/12/23 10:08:22;;;;;;;8.77;5.80;;;;;;;8.90;90.57;99702.41;4978898;28;20229;-69
2022/12/23 10:10:55;;;;;;;9.50;5.80;;;;;;;8.71;90.88;99686.38;4901671;29;20244;-70
2022/12/23 10:13:38;;;;;;;9.77;6.20;;;;;;;8.75;91.26;99688.19;4967828;28;20241;-70
2022/12/23 10:16:14;;;;;;;10.47;6.27;;;;;;;8.69;91.14;99671.41;4982526;28;20227;-70
2022/12/23 10:18:50;;;;;;;9.53;5.93;;;;;;;8.72;91.32;99669.69;4982103;28;20276;-72
2022/12/23 10:21:30;;;;;;;9.90;6.50;;;;;;;8.92;90.67;99675.16;4988917;28;20234;-70
2022/12/23 10:24:04;;;;;;;10.50;5.33;;;;;;;8.94;90.12;99661.97;4988156;28;20208;-73
2022/12/23 10:26:35;;;;;;;11.20;5.40;;;;;;;8.95;90.19;99674.28;4982530;28;20599;-71
2022/12/23 10:29:16;;;;;;;7.27;5.17;;;;;;;8.94;90.40;99667.25;4984918;28;20258;-72
2022/12/23 10:32:03;;;;;;;8.37;5.00;;;;;;;8.91;90.76;99685.69;4962733;28;20328;-71
2022/12/23 10:34:55;;;;;;;8.43;6.00;;;;;;;8.80;91.05;99677.66;4981278;28;20287;-70
2022/12/23 10:37:43;;;;;;;9.67;5.50;;;;;;;8.76;91.55;99668.84;4981172;28;20207;-70
2022/12/23 10:40:24;;;;;;;7.60;5.73;;;;;;;8.73;92.25;99657.38;4986578;28;20290;-72
2022/12/23 10:43:15;;;;;;;8.70;6.10;;;;;;;8.83;92.29;99653.06;4986188;28;20455;-69
2022/12/23 10:46:21;;;;;;;12.00;6.60;;;;;;;8.85;92.39;99641.66;4984621;28;20209;-70
2022/12/23 10:48:58;;;;;;;10.47;6.30;;;;;;;8.90;92.62;99647.84;4987832;28;20200;-70
2022/12/23 10:51:34;;;;;;;9.33;6.80;;;;;;;8.89;92.72;99626.72;4984536;28;20224;-69
2022/12/23 10:54:13;;;;;;;11.17;7.47;;;;;;;8.97;92.79;99627.66;4984696;28;20209;-72
2022/12/23 10:56:39;;;;;;;13.90;8.97;;;;;;;9.11;92.05;99611.03;4987500;28;20200;-72
2022/12/23 10:59:13;;;;;;;13.07;8.50;;;;;;;9.14;91.62;99598.69;4987146;28;20663;-75
2022/12/23 11:01:42;;;;;;;11.83;7.83;;;;;;;9.13;91.38;99596.94;4987462;28;20252;-72
2022/12/23 11:04:24;;;;;;;11.40;7.20;;;;;;;9.18;91.28;99589.91;4969193;28;20200;-77
2022/12/23 11:06:52;;;;;;;11.93;8.07;;;;;;;9.03;91.97;99590.72;4978130;28;20227;-69
2022/12/23 11:09:43;;;;;;;13.80;6.97;;;;;;;9.01;92.21;99593.34;4987143;28;20551;-70
2022/12/23 11:12:10;;;;;;;11.63;7.67;;;;;;;9.00;92.20;99581.03;4983749;28;20365;-70
2022/12/23 11:14:56;;;;;;;14.00;7.27;;;;;;;9.08;91.82;99584.59;4988575;28;20682;-69
2022/12/23 11:17:25;;;;;;;12.93;7.43;;;;;;;8.99;91.99;99563.41;4984824;28;20254;-71
2022/12/23 11:20:14;;;;;;;12.73;7.50;;;;;;;9.03;91.99;99572.22;4986602;28;20198;-70
2022/12/23 11:22:53;;;;;;;11.80;7.10;;;;;;;9.02;92.12;99567.81;5013929;22;20222;-67
2022/12/23 11:25:28;;;;;;;9.37;6.57;;;;;;;8.96;92.31;99549.31;5013114;28;20580;-66
2022/12/23 11:28:20;;;;;;;9.47;6.03;;;;;;;8.95;92.58;99552.81;5005993;28;20576;-67
2022/12/23 11:31:04;;;;;;;10.33;6.40;;;;;;;8.84;92.92;99538.66;5001526;28;20265;-66
2022/12/23 11:33:34;;;;;;;10.63;7.73;;;;;;;8.86;93.30;99535.16;5027750;28;20220;-68
2022/12/23 11:36:06;;;;;;;11.23;6.50;;;;;;;8.89;93.32;99531.66;5026786;28;20214;-69
2022/12/23 11:38:35;;;;;;;9.60;6.50;;;;;;;8.85;93.44;99524.59;5027454;28;20873;-69
2022/12/23 11:41:03;;;;;;;11.43;6.97;;;;;;;8.83;93.78;99507.88;5026846;28;20198;-66
2022/12/23 11:43:31;;;;;;;14.00;6.70;;;;;;;8.88;94.18;99511.41;5031112;28;20261;-66
2022/12/23 11:46:16;;;;;;;13.03;6.73;;;;;;;8.94;94.35;99514.97;5021226;28;20235;-66
2022/12/23 11:48:42;;;;;;;10.87;6.43;;;;;;;8.93;94.40;99507.91;5028899;28;20208;-67
2022/12/23 11:51:09;;;;;;;10.20;6.00;;;;;;;9.02;94.70;99501.81;5027624;28;20192;-69
2022/12/23 11:53:35;;;;;;;10.10;6.87;;;;;;;8.95;94.40;99482.41;5027025;28;20222;-70
2022/12/23 11:56:04;;;;;;;12.93;6.53;;;;;;;9.09;94.61;99501.84;5026481;28;20198;-67
2022/12/23 11:58:39;;;;;;;9.20;5.77;;;;;;;9.10;94.73;99489.50;5029644;28;20274;-68
2022/12/23 12:01:15;;;;;;;12.57;6.50;;;;;;;9.10;94.41;99478.94;5025522;28;20201;-67
2022/12/23 12:04:05;;;;;;;11.77;6.30;;;;;;;9.22;93.67;99478.13;5026374;28;20722;-70
2022/12/23 12:06:32;;;;;;;13.13;6.27;;;;;;;9.23;93.28;99457.00;5027201;28;20691;-70
2022/12/23 12:09:01;;;;;;;10.70;6.23;;;;;;;9.39;92.26;99461.47;5028937;28;20669;-67
2022/12/23 12:11:35;;;;;;;11.90;6.30;;;;;;;9.22;92.78;99457.00;5025091;28;20199;-67
2022/12/23 12:14:07;;;;;;;10.73;6.30;;;;;;;9.26;92.32;99450.84;5028765;28;20234;-67
2022/12/23 12:16:51;;;;;;;11.90;5.97;;;;;;;9.22;92.69;99459.66;5029665;28;20260;-67
2022/12/23 12:19:27;;;;;;;11.47;5.70;;;;;;;9.13;93.02;99452.53;5029500;28;20293;-68